Time;durP1;ratioP1;P1;durP2;ratioP2;P2;SDS_P1;SDS_P2;PMS_P1;PMS_P2;Temp;Humidity;BMP_temperature;BMP_pressure;BME280_temperature;BME280_humidity;BME280_pressure;Samples;Min_cycle;Max_cycle;Signal;HPM_P1;HPM_P2
2021/10/25 00:00:17;;;;;;;;;;;;;;;;;;1017799;29;1190;-15
2021/10/25 00:00:48;;;;;;;;;;;;;;;;;;1022217;28;1073;-15
2021/10/25 00:01:19;;;;;;;;;;;;;;;;;;1020847;29;1170;-14
2021/10/25 00:01:51;;;;;;;;;;;;;;;;;;1021842;29;1114;-16
2021/10/25 00:02:22;;;;;;;;;;;;;;;;;;1013507;29;1301;-15
2021/10/25 00:02:54;;;;;;;;;;;;;;;;;;1018129;29;1244;-15
2021/10/25 00:03:24;;;;;;;;;;;;;;;;;;1021976;29;1164;-15
2021/10/25 00:03:55;;;;;;;;;;;;;;;;;;1021873;28;1204;-14
2021/10/25 00:04:25;;;;;;;;;;;;;;;;;;1030632;28;1225;-15
2021/10/25 00:04:56;;;;;;;;;;;;;;;;;;1029518;28;1539;-16
2021/10/25 00:05:29;;;;;;;;;;;;;;;;;;1029415;28;1209;-15
2021/10/25 00:05:59;;;;;;;;;;;;;;;;;;1025776;28;1093;-16
2021/10/25 00:06:30;;;;;;;;;;;;;;;;;;1020805;29;1541;-15
2021/10/25 00:07:01;;;;;;;;;;;;;;;;;;1021767;29;1269;-15
2021/10/25 00:07:32;;;;;;;;;;;;;;;;;;1021599;28;1343;-15
2021/10/25 00:08:03;;;;;;;;;;;;;;;;;;1025781;28;1283;-15
2021/10/25 00:08:33;;;;;;;;;;;;;;;;;;1029820;28;1457;-15
2021/10/25 00:09:04;;;;;;;;;;;;;;;;;;1025061;28;1579;-15
2021/10/25 00:09:34;;;;;;;;;;;;;;;;;;1021782;29;1058;-14
2021/10/25 00:10:06;;;;;;;;;;;;;;;;;;1021937;29;827;-15
2021/10/25 00:10:37;;;;;;;;;;;;;;;;;;1020404;28;1372;-15
2021/10/25 00:11:08;;;;;;;;;;;;;;;;;;1013983;29;1084;-15
2021/10/25 00:11:39;;;;;;;;;;;;;;;;;;1013644;29;1478;-16
2021/10/25 00:12:09;;;;;;;;;;;;;;;;;;1009955;29;1175;-15
2021/10/25 00:12:41;;;;;;;;;;;;;;;;;;1018019;29;1143;-15
2021/10/25 00:13:12;;;;;;;;;;;;;;;;;;1017544;29;1225;-15
2021/10/25 00:13:42;;;;;;;;;;;;;;;;;;1029977;28;1342;-15
2021/10/25 00:14:13;;;;;;;;;;;;;;;;;;1037788;28;1448;-15
2021/10/25 00:14:44;;;;;;;;;;;;;;;;;;1037783;28;1078;-16
2021/10/25 00:15:14;;;;;;;;;;;;;;;;;;1037703;28;1271;-15
2021/10/25 00:15:45;;;;;;;;;;;;;;;;;;1036967;28;1330;-15
2021/10/25 00:16:16;;;;;;;;;;;;;;;;;;1032859;28;1910;-16
2021/10/25 00:16:48;;;;;;;;;;;;;;;;;;1029588;28;1070;-15
2021/10/25 00:17:19;;;;;;;;;;;;;;;;;;1024756;28;1529;-15
2021/10/25 00:17:49;;;;;;;;;;;;;;;;;;1028508;28;1108;-15
2021/10/25 00:18:20;;;;;;;;;;;;;;;;;;1025134;28;1110;-17
2021/10/25 00:18:51;;;;;;;;;;;;;;;;;;1021781;28;1046;-15
2021/10/25 00:19:22;;;;;;;;;;;;;;;;;;1025659;28;1244;-15
2021/10/25 00:19:52;;;;;;;;;;;;;;;;;;1029229;28;1221;-15
2021/10/25 00:20:23;;;;;;;;;;;;;;;;;;1029737;28;998;-16
2021/10/25 00:20:53;;;;;;;;;;;;;;;;;;1029534;28;1182;-15
2021/10/25 00:21:24;;;;;;;;;;;;;;;;;;1029300;28;1109;-14
2021/10/25 00:21:54;;;;;;;;;;;;;;;;;;1025862;28;1098;-15
2021/10/25 00:22:26;;;;;;;;;;;;;;;;;;1029231;28;1213;-15
2021/10/25 00:22:57;;;;;;;;;;;;;;;;;;1033675;28;1053;-15
2021/10/25 00:23:27;;;;;;;;;;;;;;;;;;1025222;28;1169;-14
2021/10/25 00:23:58;;;;;;;;;;;;;;;;;;1021105;29;1174;-14
2021/10/25 00:24:29;;;;;;;;;;;;;;;;;;1017359;29;1326;-15
2021/10/25 00:25:00;;;;;;;;;;;;;;;;;;1013401;29;1180;-15
2021/10/25 00:25:32;;;;;;;;;;;;;;;;;;1018077;29;1084;-15
2021/10/25 00:26:03;;;;;;;;;;;;;;;;;;1021437;29;1025;-15
2021/10/25 00:26:34;;;;;;;;;;;;;;;;;;1017677;29;1097;-14
2021/10/25 00:27:05;;;;;;;;;;;;;;;;;;1017700;29;1161;-15
2021/10/25 00:27:35;;;;;;;;;;;;;;;;;;1017969;28;1277;-16
2021/10/25 00:28:06;;;;;;;;;;;;;;;;;;1025747;28;1216;-15
2021/10/25 00:28:36;;;;;;;;;;;;;;;;;;1025865;28;949;-14
2021/10/25 00:29:09;;;;;;;;;;;;;;;;;;1025380;28;1583;-15
2021/10/25 00:29:41;;;;;;;;;;;;;;;;;;1017549;29;1363;-14
2021/10/25 00:30:11;;;;;;;;;;;;;;;;;;1016789;29;1167;-14
2021/10/25 00:30:43;;;;;;;;;;;;;;;;;;1009507;29;1206;-14
2021/10/25 00:31:14;;;;;;;;;;;;;;;;;;1006872;29;1208;-14
2021/10/25 00:31:44;;;;;;;;;;;;;;;;;;1013320;29;1154;-14
2021/10/25 00:32:15;;;;;;;;;;;;;;;;;;1009690;29;1506;-15
2021/10/25 00:32:46;;;;;;;;;;;;;;;;;;1010090;29;1439;-14
2021/10/25 00:33:18;;;;;;;;;;;;;;;;;;1016952;28;1729;-16
2021/10/25 00:33:49;;;;;;;;;;;;;;;;;;1013937;29;1129;-15
2021/10/25 00:34:20;;;;;;;;;;;;;;;;;;1012660;29;1245;-14
2021/10/25 00:34:51;;;;;;;;;;;;;;;;;;1017011;29;1275;-15
2021/10/25 00:35:22;;;;;;;;;;;;;;;;;;1010497;29;1145;-14
2021/10/25 00:35:53;;;;;;;;;;;;;;;;;;1020440;29;1195;-15
2021/10/25 00:36:24;;;;;;;;;;;;;;;;;;1017089;29;1970;-15
2021/10/25 00:36:55;;;;;;;;;;;;;;;;;;1013152;29;1120;-15
2021/10/25 00:37:26;;;;;;;;;;;;;;;;;;1009787;29;1194;-15
2021/10/25 00:37:57;;;;;;;;;;;;;;;;;;1014058;29;1293;-14
2021/10/25 00:38:28;;;;;;;;;;;;;;;;;;1013280;29;1098;-15
2021/10/25 00:38:59;;;;;;;;;;;;;;;;;;1017569;29;1146;-15
2021/10/25 00:39:31;;;;;;;;;;;;;;;;;;1017890;29;1257;-16
2021/10/25 00:40:03;;;;;;;;;;;;;;;;;;1010219;29;1257;-17
2021/10/25 00:40:33;;;;;;;;;;;;;;;;;;1013489;29;1023;-13
2021/10/25 00:41:04;;;;;;;;;;;;;;;;;;1009190;29;1279;-15
2021/10/25 00:41:35;;;;;;;;;;;;;;;;;;1014001;29;1194;-16
2021/10/25 00:42:06;;;;;;;;;;;;;;;;;;1017866;29;1046;-15
2021/10/25 00:42:37;;;;;;;;;;;;;;;;;;1012771;29;1355;-15
2021/10/25 00:43:09;;;;;;;;;;;;;;;;;;1017395;29;1031;-15
2021/10/25 00:43:39;;;;;;;;;;;;;;;;;;1009530;29;1269;-15
2021/10/25 00:44:10;;;;;;;;;;;;;;;;;;1013878;29;1141;-15
2021/10/25 00:44:41;;;;;;;;;;;;;;;;;;1017913;29;1145;-15
2021/10/25 00:45:11;;;;;;;;;;;;;;;;;;1009098;29;1235;-15
2021/10/25 00:45:42;;;;;;;;;;;;;;;;;;1017830;29;1056;-15
2021/10/25 00:46:12;;;;;;;;;;;;;;;;;;1017309;29;1378;-14
2021/10/25 00:46:43;;;;;;;;;;;;;;;;;;1013522;28;1249;-15
2021/10/25 00:47:13;;;;;;;;;;;;;;;;;;1025745;28;1386;-15
2021/10/25 00:47:44;;;;;;;;;;;;;;;;;;1020827;28;1457;-15
2021/10/25 00:48:14;;;;;;;;;;;;;;;;;;1017567;29;1416;-14
2021/10/25 00:48:45;;;;;;;;;;;;;;;;;;1018030;29;1168;-15
2021/10/25 00:49:15;;;;;;;;;;;;;;;;;;1013121;29;1179;-15
2021/10/25 00:49:46;;;;;;;;;;;;;;;;;;1013743;29;1235;-14
2021/10/25 00:50:17;;;;;;;;;;;;;;;;;;1021636;29;1191;-15
2021/10/25 00:50:48;;;;;;;;;;;;;;;;;;1025698;28;1023;-15
2021/10/25 00:51:19;;;;;;;;;;;;;;;;;;1025197;28;1006;-15
2021/10/25 00:51:50;;;;;;;;;;;;;;;;;;1012629;29;1304;-14
2021/10/25 00:52:20;;;;;;;;;;;;;;;;;;1005915;29;1195;-14
2021/10/25 00:52:53;;;;;;;;;;;;;;;;;;1009888;29;1135;-15
2021/10/25 00:53:24;;;;;;;;;;;;;;;;;;1010097;29;1585;-15
2021/10/25 00:53:55;;;;;;;;;;;;;;;;;;1021846;29;1279;-15
2021/10/25 00:54:25;;;;;;;;;;;;;;;;;;1012357;29;1428;-16
2021/10/25 00:54:57;;;;;;;;;;;;;;;;;;1006335;29;1109;-15
2021/10/25 00:55:29;;;;;;;;;;;;;;;;;;1010049;29;1283;-13
2021/10/25 00:56:00;;;;;;;;;;;;;;;;;;1021186;29;1213;-15
2021/10/25 00:56:33;;;;;;;;;;;;;;;;;;1020652;28;1915;-14
2021/10/25 00:57:05;;;;;;;;;;;;;;;;;;1025279;28;1160;-15
2021/10/25 00:57:36;;;;;;;;;;;;;;;;;;1019629;29;1229;-14
2021/10/25 00:58:07;;;;;;;;;;;;;;;;;;1010041;29;906;-15
2021/10/25 00:58:38;;;;;;;;;;;;;;;;;;1012537;29;1151;-15
2021/10/25 00:59:10;;;;;;;;;;;;;;;;;;1013695;29;1067;-15
2021/10/25 00:59:41;;;;;;;;;;;;;;;;;;1013040;29;1202;-17
2021/10/25 01:00:12;;;;;;;;;;;;;;;;;;1017593;29;1227;-16
2021/10/25 01:00:43;;;;;;;;;;;;;;;;;;1017470;29;1137;-15
2021/10/25 01:01:15;;;;;;;;;;;;;;;;;;1025594;28;1209;-15
2021/10/25 01:01:46;;;;;;;;;;;;;;;;;;1030027;28;1154;-17
2021/10/25 01:02:17;;;;;;;;;;;;;;;;;;1024258;28;1253;-15
2021/10/25 01:02:49;;;;;;;;;;;;;;;;;;1018243;29;1186;-15
2021/10/25 01:03:21;;;;;;;;;;;;;;;;;;1013287;29;1276;-15
2021/10/25 01:03:51;;;;;;;;;;;;;;;;;;1005924;29;1166;-15
2021/10/25 01:04:22;;;;;;;;;;;;;;;;;;1009585;29;1299;-15
2021/10/25 01:04:53;;;;;;;;;;;;;;;;;;1010319;29;1131;-15
2021/10/25 01:05:24;;;;;;;;;;;;;;;;;;1022177;28;1376;-16
2021/10/25 01:05:56;;;;;;;;;;;;;;;;;;1033471;28;1089;-15
2021/10/25 01:06:28;;;;;;;;;;;;;;;;;;1025074;28;1187;-15
2021/10/25 01:07:03;;;;;;;;;;;;;;;;;;1020923;29;1049;-15
2021/10/25 01:07:35;;;;;;;;;;;;;;;;;;1013040;29;1131;-15
2021/10/25 01:08:06;;;;;;;;;;;;;;;;;;1015508;29;1271;-15
2021/10/25 01:08:38;;;;;;;;;;;;;;;;;;1009823;29;1060;-14
2021/10/25 01:09:09;;;;;;;;;;;;;;;;;;1011385;29;1149;-14
2021/10/25 01:09:41;;;;;;;;;;;;;;;;;;1021709;28;1801;-15
2021/10/25 01:10:12;;;;;;;;;;;;;;;;;;1021594;28;986;-14
2021/10/25 01:10:43;;;;;;;;;;;;;;;;;;1017552;29;1158;-16
2021/10/25 01:11:14;;;;;;;;;;;;;;;;;;1017683;29;1160;-15
2021/10/25 01:11:45;;;;;;;;;;;;;;;;;;1021477;28;1180;-14
2021/10/25 01:12:16;;;;;;;;;;;;;;;;;;1033414;28;1153;-15
2021/10/25 01:12:48;;;;;;;;;;;;;;;;;;1029340;28;1168;-15
2021/10/25 01:13:19;;;;;;;;;;;;;;;;;;1029297;28;1263;-15
2021/10/25 01:13:50;;;;;;;;;;;;;;;;;;1021871;28;1186;-15
2021/10/25 01:14:21;;;;;;;;;;;;;;;;;;1020729;28;1551;-16
2021/10/25 01:14:52;;;;;;;;;;;;;;;;;;1024361;28;1242;-15
2021/10/25 01:15:23;;;;;;;;;;;;;;;;;;1021752;29;1125;-16
2021/10/25 01:15:59;;;;;;;;;;;;;;;;;;1018223;29;1173;-15
2021/10/25 01:16:30;;;;;;;;;;;;;;;;;;1020775;28;1903;-15
2021/10/25 01:17:00;;;;;;;;;;;;;;;;;;1012450;29;1441;-15
2021/10/25 01:17:32;;;;;;;;;;;;;;;;;;1021401;29;1217;-15
2021/10/25 01:18:03;;;;;;;;;;;;;;;;;;1029932;28;1091;-14
2021/10/25 01:18:36;;;;;;;;;;;;;;;;;;1016270;29;1246;-15
2021/10/25 01:19:07;;;;;;;;;;;;;;;;;;1012533;29;1100;-15
2021/10/25 01:19:38;;;;;;;;;;;;;;;;;;1012716;29;1334;-15
2021/10/25 01:20:12;;;;;;;;;;;;;;;;;;1010892;29;1554;-14
2021/10/25 01:20:43;;;;;;;;;;;;;;;;;;1013941;29;1135;-15
2021/10/25 01:21:13;;;;;;;;;;;;;;;;;;1005804;29;1278;-15
2021/10/25 01:21:44;;;;;;;;;;;;;;;;;;1010353;29;1187;-14
2021/10/25 01:22:18;;;;;;;;;;;;;;;;;;1017711;29;1284;-14
2021/10/25 01:22:49;;;;;;;;;;;;;;;;;;1018181;28;1469;-14
2021/10/25 01:23:20;;;;;;;;;;;;;;;;;;1020957;29;1336;-14
2021/10/25 01:23:52;;;;;;;;;;;;;;;;;;1012892;29;1192;-15
2021/10/25 01:24:22;;;;;;;;;;;;;;;;;;1014164;29;1122;-14
2021/10/25 01:24:54;;;;;;;;;;;;;;;;;;1021969;28;1186;-14
2021/10/25 01:25:25;;;;;;;;;;;;;;;;;;1008703;29;1199;-14
2021/10/25 01:25:59;;;;;;;;;;;;;;;;;;1009323;29;1235;-14
2021/10/25 01:26:30;;;;;;;;;;;;;;;;;;1016824;29;1536;-14
2021/10/25 01:27:00;;;;;;;;;;;;;;;;;;1019042;28;1413;-15
2021/10/25 01:27:31;;;;;;;;;;;;;;;;;;1023110;28;1077;-14
2021/10/25 01:28:03;;;;;;;;;;;;;;;;;;1025686;28;1067;-15
2021/10/25 01:28:34;;;;;;;;;;;;;;;;;;1014586;29;1122;-14
2021/10/25 01:29:06;;;;;;;;;;;;;;;;;;1019133;28;1220;-14
2021/10/25 01:29:36;;;;;;;;;;;;;;;;;;1025380;28;1293;-14
2021/10/25 01:30:08;;;;;;;;;;;;;;;;;;1018578;29;1410;-15
2021/10/25 01:30:38;;;;;;;;;;;;;;;;;;1022427;28;1827;-15
2021/10/25 01:31:09;;;;;;;;;;;;;;;;;;1030307;28;1384;-14
2021/10/25 01:31:40;;;;;;;;;;;;;;;;;;1026955;28;859;-14
2021/10/25 01:32:11;;;;;;;;;;;;;;;;;;1034000;28;1072;-15
2021/10/25 01:32:42;;;;;;;;;;;;;;;;;;1034675;28;879;-14
2021/10/25 01:33:14;;;;;;;;;;;;;;;;;;1022391;28;1440;-14
2021/10/25 01:33:50;;;;;;;;;;;;;;;;;;1021946;29;1305;-14
2021/10/25 01:34:22;;;;;;;;;;;;;;;;;;1018563;29;1426;-16
2021/10/25 01:34:53;;;;;;;;;;;;;;;;;;1008799;29;1094;-15
2021/10/25 01:35:24;;;;;;;;;;;;;;;;;;1013518;29;1063;-15
2021/10/25 01:35:55;;;;;;;;;;;;;;;;;;1013679;29;1474;-15
2021/10/25 01:36:26;;;;;;;;;;;;;;;;;;1011274;28;1903;-14
2021/10/25 01:36:57;;;;;;;;;;;;;;;;;;1018287;29;1051;-14
2021/10/25 01:37:28;;;;;;;;;;;;;;;;;;1021176;29;1205;-15
2021/10/25 01:38:00;;;;;;;;;;;;;;;;;;1026243;28;1431;-15
2021/10/25 01:38:32;;;;;;;;;;;;;;;;;;1026228;28;1305;-15
2021/10/25 01:39:03;;;;;;;;;;;;;;;;;;1030093;28;1664;-13
2021/10/25 01:39:33;;;;;;;;;;;;;;;;;;1025371;28;1229;-14
2021/10/25 01:40:06;;;;;;;;;;;;;;;;;;1013664;29;1178;-15
2021/10/25 01:40:37;;;;;;;;;;;;;;;;;;1013911;29;1082;-15
2021/10/25 01:41:09;;;;;;;;;;;;;;;;;;1014498;29;1665;-14
2021/10/25 01:41:39;;;;;;;;;;;;;;;;;;1014078;29;1536;-14
2021/10/25 01:42:11;;;;;;;;;;;;;;;;;;1011049;29;1051;-14
2021/10/25 01:42:43;;;;;;;;;;;;;;;;;;1009161;29;1134;-14
2021/10/25 01:43:13;;;;;;;;;;;;;;;;;;1010387;29;1538;-15
2021/10/25 01:43:45;;;;;;;;;;;;;;;;;;1014600;29;1715;-13
2021/10/25 01:44:16;;;;;;;;;;;;;;;;;;1013534;29;1514;-14
2021/10/25 01:44:46;;;;;;;;;;;;;;;;;;1010892;29;1158;-15
2021/10/25 01:45:18;;;;;;;;;;;;;;;;;;1024905;28;1460;-15
2021/10/25 01:45:49;;;;;;;;;;;;;;;;;;1026376;28;1224;-15
2021/10/25 01:46:20;;;;;;;;;;;;;;;;;;1029615;28;1193;-15
2021/10/25 01:46:51;;;;;;;;;;;;;;;;;;1028689;28;1731;-15
2021/10/25 01:47:33;;;;;;;;;;;;;;;;;;1020682;29;1068;-15
2021/10/25 01:48:04;;;;;;;;;;;;;;;;;;1020411;29;1448;-14
2021/10/25 01:48:35;;;;;;;;;;;;;;;;;;1025760;28;1565;-15
2021/10/25 01:49:06;;;;;;;;;;;;;;;;;;1021695;28;1404;-13
2021/10/25 01:49:37;;;;;;;;;;;;;;;;;;1009660;29;1266;-15
2021/10/25 01:50:08;;;;;;;;;;;;;;;;;;1007168;29;1311;-14
2021/10/25 01:50:40;;;;;;;;;;;;;;;;;;1010289;29;1572;-14
2021/10/25 01:51:10;;;;;;;;;;;;;;;;;;1007166;29;1570;-14
2021/10/25 01:51:41;;;;;;;;;;;;;;;;;;1021915;28;1382;-13
2021/10/25 01:52:14;;;;;;;;;;;;;;;;;;1021255;29;1236;-14
2021/10/25 01:52:50;;;;;;;;;;;;;;;;;;1022001;29;1155;-15
2021/10/25 01:53:22;;;;;;;;;;;;;;;;;;1023305;28;1412;-15
2021/10/25 01:53:56;;;;;;;;;;;;;;;;;;1023880;28;1159;-14
2021/10/25 01:54:27;;;;;;;;;;;;;;;;;;1017572;29;1333;-15
2021/10/25 01:54:57;;;;;;;;;;;;;;;;;;1017724;29;1450;-15
2021/10/25 01:55:29;;;;;;;;;;;;;;;;;;1018373;29;1408;-14
2021/10/25 01:55:59;;;;;;;;;;;;;;;;;;1022298;28;1247;-14
2021/10/25 01:56:36;;;;;;;;;;;;;;;;;;1028921;28;1962;-14
2021/10/25 01:57:08;;;;;;;;;;;;;;;;;;1029845;28;1763;-14
2021/10/25 01:57:39;;;;;;;;;;;;;;;;;;1024389;28;1400;-15
2021/10/25 01:58:10;;;;;;;;;;;;;;;;;;1022893;28;1394;-15
2021/10/25 01:58:40;;;;;;;;;;;;;;;;;;1021825;29;1130;-15
2021/10/25 01:59:11;;;;;;;;;;;;;;;;;;1022327;29;1455;-15
2021/10/25 01:59:42;;;;;;;;;;;;;;;;;;1022030;29;979;-15
2021/10/25 02:00:16;;;;;;;;;;;;;;;;;;1018185;29;1193;-15
2021/10/25 02:00:48;;;;;;;;;;;;;;;;;;1022959;28;1149;-15
2021/10/25 02:01:21;;;;;;;;;;;;;;;;;;1018830;29;1177;-14
2021/10/25 02:01:52;;;;;;;;;;;;;;;;;;1017824;29;1181;-15
2021/10/25 02:02:25;;;;;;;;;;;;;;;;;;1017468;29;1203;-14
2021/10/25 02:02:57;;;;;;;;;;;;;;;;;;1014931;29;1323;-14
2021/10/25 02:03:45;;;;;;;;;;;;;;;;;;1025166;28;1120;-13
2021/10/25 02:04:26;;;;;;;;;;;;;;;;;;1021828;29;1361;-14
2021/10/25 02:04:58;;;;;;;;;;;;;;;;;;1022079;29;1190;-14
2021/10/25 02:05:28;;;;;;;;;;;;;;;;;;1012925;29;1177;-14
2021/10/25 02:06:00;;;;;;;;;;;;;;;;;;1013162;29;1179;-13
2021/10/25 02:06:30;;;;;;;;;;;;;;;;;;1014596;29;1385;-14
2021/10/25 02:07:02;;;;;;;;;;;;;;;;;;1022062;29;1122;-14
2021/10/25 02:07:32;;;;;;;;;;;;;;;;;;1021592;28;1161;-14
2021/10/25 02:08:04;;;;;;;;;;;;;;;;;;1021848;29;1393;-16
2021/10/25 02:08:47;;;;;;;;;;;;;;;;;;1021963;29;1169;-15
2021/10/25 02:09:21;;;;;;;;;;;;;;;;;;1022299;28;1434;-15
2021/10/25 02:09:52;;;;;;;;;;;;;;;;;;1023857;28;1256;-14
2021/10/25 02:10:23;;;;;;;;;;;;;;;;;;1013767;29;1338;-14
2021/10/25 02:10:54;;;;;;;;;;;;;;;;;;1003297;29;1134;-14
2021/10/25 02:11:25;;;;;;;;;;;;;;;;;;1009686;29;1308;-13
2021/10/25 02:12:02;;;;;;;;;;;;;;;;;;1004341;29;1180;-15
2021/10/25 02:12:34;;;;;;;;;;;;;;;;;;1007580;29;1043;-14
2021/10/25 02:13:05;;;;;;;;;;;;;;;;;;1004977;29;1187;-14
2021/10/25 02:13:36;;;;;;;;;;;;;;;;;;1003563;29;1359;-15
2021/10/25 02:14:10;;;;;;;;;;;;;;;;;;1003109;29;1173;-14
2021/10/25 02:14:41;;;;;;;;;;;;;;;;;;1007591;29;1422;-15
2021/10/25 02:15:12;;;;;;;;;;;;;;;;;;1018864;29;1349;-14
2021/10/25 02:15:46;;;;;;;;;;;;;;;;;;1013187;29;1768;-15
2021/10/25 02:16:20;;;;;;;;;;;;;;;;;;1021817;29;1989;-16
2021/10/25 02:16:50;;;;;;;;;;;;;;;;;;1018151;29;1398;-16
2021/10/25 02:17:21;;;;;;;;;;;;;;;;;;1016931;29;1464;-20
2021/10/25 02:18:04;;;;;;;;;;;;;;;;;;1012312;29;1594;-14
2021/10/25 02:18:34;;;;;;;;;;;;;;;;;;1016002;29;1212;-14
2021/10/25 02:19:13;;;;;;;;;;;;;;;;;;1018208;29;1277;-14
2021/10/25 02:19:50;;;;;;;;;;;;;;;;;;1027265;28;1254;-14
2021/10/25 02:20:26;;;;;;;;;;;;;;;;;;1023775;28;1341;-15
2021/10/25 02:20:56;;;;;;;;;;;;;;;;;;1016561;29;1311;-14
2021/10/25 02:21:27;;;;;;;;;;;;;;;;;;1021074;29;1262;-15
2021/10/25 02:21:58;;;;;;;;;;;;;;;;;;1021592;29;1028;-15
2021/10/25 02:22:29;;;;;;;;;;;;;;;;;;1021377;28;1837;-15
2021/10/25 02:22:59;;;;;;;;;;;;;;;;;;1025972;28;1219;-14
2021/10/25 02:23:32;;;;;;;;;;;;;;;;;;1026047;28;1489;-15
2021/10/25 02:24:03;;;;;;;;;;;;;;;;;;1024741;28;1870;-14
2021/10/25 02:24:35;;;;;;;;;;;;;;;;;;1022078;29;1171;-15
2021/10/25 02:25:06;;;;;;;;;;;;;;;;;;1017125;29;1188;-15
2021/10/25 02:25:37;;;;;;;;;;;;;;;;;;1014299;29;1199;-16
2021/10/25 02:26:08;;;;;;;;;;;;;;;;;;1014502;29;1163;-15
2021/10/25 02:26:38;;;;;;;;;;;;;;;;;;1010018;29;1354;-14
2021/10/25 02:27:09;;;;;;;;;;;;;;;;;;1014468;29;1201;-14
2021/10/25 02:27:41;;;;;;;;;;;;;;;;;;1018040;29;1254;-14
2021/10/25 02:28:12;;;;;;;;;;;;;;;;;;1016924;29;1527;-14
2021/10/25 02:28:43;;;;;;;;;;;;;;;;;;1018123;29;1268;-15
2021/10/25 02:29:16;;;;;;;;;;;;;;;;;;1017975;28;1603;-16
2021/10/25 02:29:47;;;;;;;;;;;;;;;;;;1025951;28;1365;-15
2021/10/25 02:30:25;;;;;;;;;;;;;;;;;;1020789;29;1533;-15
2021/10/25 02:30:58;;;;;;;;;;;;;;;;;;1020781;28;1511;-14
2021/10/25 02:31:35;;;;;;;;;;;;;;;;;;1014459;29;1183;-14
2021/10/25 02:32:07;;;;;;;;;;;;;;;;;;1019452;28;1203;-16
2021/10/25 02:32:38;;;;;;;;;;;;;;;;;;1022002;29;1216;-15
2021/10/25 02:33:09;;;;;;;;;;;;;;;;;;1017938;29;1388;-13
2021/10/25 02:33:40;;;;;;;;;;;;;;;;;;1017882;29;1290;-14
2021/10/25 02:34:11;;;;;;;;;;;;;;;;;;1014069;29;1179;-14
2021/10/25 02:34:45;;;;;;;;;;;;;;;;;;1013414;29;1303;-14
2021/10/25 02:35:15;;;;;;;;;;;;;;;;;;1018241;29;1413;-14
2021/10/25 02:35:49;;;;;;;;;;;;;;;;;;1021487;29;1078;-13
2021/10/25 02:36:22;;;;;;;;;;;;;;;;;;1018727;29;1993;-14
2021/10/25 02:36:53;;;;;;;;;;;;;;;;;;1014802;29;1396;-15
2021/10/25 02:37:26;;;;;;;;;;;;;;;;;;1020818;29;1635;-14
2021/10/25 02:38:01;;;;;;;;;;;;;;;;;;1020666;29;1213;-14
2021/10/25 02:38:35;;;;;;;;;;;;;;;;;;1009813;29;1544;-14
2021/10/25 02:39:06;;;;;;;;;;;;;;;;;;1004679;29;1155;-13
2021/10/25 02:39:38;;;;;;;;;;;;;;;;;;1005704;29;1127;-14
2021/10/25 02:40:09;;;;;;;;;;;;;;;;;;1010488;29;1224;-14
2021/10/25 02:40:41;;;;;;;;;;;;;;;;;;1014891;29;1278;-14
2021/10/25 02:41:11;;;;;;;;;;;;;;;;;;1016977;29;1300;-15
2021/10/25 02:41:43;;;;;;;;;;;;;;;;;;1019733;28;1581;-14
2021/10/25 02:42:16;;;;;;;;;;;;;;;;;;1023832;28;1347;-15
2021/10/25 02:42:47;;;;;;;;;;;;;;;;;;1021148;29;1847;-14
2021/10/25 02:43:18;;;;;;;;;;;;;;;;;;1014010;29;1342;-14
2021/10/25 02:43:50;;;;;;;;;;;;;;;;;;1014425;29;1126;-14
2021/10/25 02:44:21;;;;;;;;;;;;;;;;;;1012791;29;1712;-13
2021/10/25 02:44:52;;;;;;;;;;;;;;;;;;1007363;29;1238;-15
2021/10/25 02:45:24;;;;;;;;;;;;;;;;;;1013037;29;1178;-15
2021/10/25 02:45:57;;;;;;;;;;;;;;;;;;1014546;29;1203;-14
2021/10/25 02:46:28;;;;;;;;;;;;;;;;;;1018167;29;1185;-15
2021/10/25 02:46:58;;;;;;;;;;;;;;;;;;1012927;29;1248;-14
2021/10/25 02:47:29;;;;;;;;;;;;;;;;;;1010175;29;998;-14
2021/10/25 02:48:00;;;;;;;;;;;;;;;;;;1002451;29;1374;-14
2021/10/25 02:48:31;;;;;;;;;;;;;;;;;;1017703;29;1225;-13
2021/10/25 02:49:07;;;;;;;;;;;;;;;;;;1014374;29;1274;-14
2021/10/25 02:49:39;;;;;;;;;;;;;;;;;;1019242;28;1384;-14
2021/10/25 02:50:10;;;;;;;;;;;;;;;;;;1017490;29;1235;-14
2021/10/25 02:50:41;;;;;;;;;;;;;;;;;;1021622;28;1452;-14
2021/10/25 02:51:13;;;;;;;;;;;;;;;;;;1021606;29;1278;-15
2021/10/25 02:51:44;;;;;;;;;;;;;;;;;;1019120;28;1137;-15
2021/10/25 02:52:14;;;;;;;;;;;;;;;;;;1028627;28;2321;-14
2021/10/25 02:52:45;;;;;;;;;;;;;;;;;;1026058;28;1375;-13
2021/10/25 02:53:16;;;;;;;;;;;;;;;;;;1030041;28;1160;-14
2021/10/25 02:53:48;;;;;;;;;;;;;;;;;;1029723;28;1160;-14
2021/10/25 02:54:19;;;;;;;;;;;;;;;;;;1030037;28;1049;-13
2021/10/25 02:54:55;;;;;;;;;;;;;;;;;;1024643;28;1281;-15
2021/10/25 02:55:27;;;;;;;;;;;;;;;;;;1021638;29;1214;-15
2021/10/25 02:56:02;;;;;;;;;;;;;;;;;;1020020;29;1232;-15
2021/10/25 02:56:33;;;;;;;;;;;;;;;;;;1021540;29;1907;-15
2021/10/25 02:57:04;;;;;;;;;;;;;;;;;;1020180;29;1400;-15
2021/10/25 02:57:38;;;;;;;;;;;;;;;;;;1017107;29;1412;-15
2021/10/25 02:58:09;;;;;;;;;;;;;;;;;;1022006;29;1181;-14
2021/10/25 02:58:40;;;;;;;;;;;;;;;;;;1022519;28;1434;-12
2021/10/25 02:59:10;;;;;;;;;;;;;;;;;;1013115;29;1241;-14
2021/10/25 02:59:41;;;;;;;;;;;;;;;;;;1013876;29;1245;-15
2021/10/25 03:00:13;;;;;;;;;;;;;;;;;;1008994;29;1450;-15
2021/10/25 03:00:44;;;;;;;;;;;;;;;;;;1010650;29;1311;-14
2021/10/25 03:01:15;;;;;;;;;;;;;;;;;;1013270;29;1504;-15
2021/10/25 03:01:47;;;;;;;;;;;;;;;;;;1011795;29;1390;-14
2021/10/25 03:02:19;;;;;;;;;;;;;;;;;;1004952;29;1126;-15
2021/10/25 03:02:52;;;;;;;;;;;;;;;;;;1010686;29;1333;-15
2021/10/25 03:03:23;;;;;;;;;;;;;;;;;;1015801;29;1435;-14
2021/10/25 03:03:54;;;;;;;;;;;;;;;;;;1007840;29;989;-15
2021/10/25 03:04:30;;;;;;;;;;;;;;;;;;1017768;29;1315;-15
2021/10/25 03:05:02;;;;;;;;;;;;;;;;;;1018072;29;1285;-15
2021/10/25 03:05:33;;;;;;;;;;;;;;;;;;1005446;29;1293;-15
2021/10/25 03:06:04;;;;;;;;;;;;;;;;;;1006635;29;1385;-15
2021/10/25 03:06:36;;;;;;;;;;;;;;;;;;1014061;29;1219;-15
2021/10/25 03:07:08;;;;;;;;;;;;;;;;;;1016849;29;1389;-14
2021/10/25 03:07:46;;;;;;;;;;;;;;;;;;1015606;29;1033;-14
2021/10/25 03:08:17;;;;;;;;;;;;;;;;;;1010570;29;1261;-14
2021/10/25 03:08:49;;;;;;;;;;;;;;;;;;1015263;29;1130;-15
2021/10/25 03:09:20;;;;;;;;;;;;;;;;;;1021392;29;1319;-14
2021/10/25 03:09:51;;;;;;;;;;;;;;;;;;1016530;29;1218;-14
2021/10/25 03:10:23;;;;;;;;;;;;;;;;;;1021348;29;1019;-15
2021/10/25 03:10:53;;;;;;;;;;;;;;;;;;1012823;29;1652;-14
2021/10/25 03:11:24;;;;;;;;;;;;;;;;;;1009880;29;1291;-14
2021/10/25 03:11:55;;;;;;;;;;;;;;;;;;1013389;29;1185;-14
2021/10/25 03:12:26;;;;;;;;;;;;;;;;;;1017727;28;1133;-16
2021/10/25 03:13:01;;;;;;;;;;;;;;;;;;1018735;29;1051;-15
2021/10/25 03:13:31;;;;;;;;;;;;;;;;;;1009119;29;1337;-14
2021/10/25 03:14:05;;;;;;;;;;;;;;;;;;1009259;29;1211;-16
2021/10/25 03:14:54;;;;;;;;;;;;;;;;;;1009888;29;1422;-14
2021/10/25 03:15:25;;;;;;;;;;;;;;;;;;1017011;29;1166;-15
2021/10/25 03:15:55;;;;;;;;;;;;;;;;;;1016934;29;1230;-15
2021/10/25 03:16:27;;;;;;;;;;;;;;;;;;1020003;29;1914;-14
2021/10/25 03:16:58;;;;;;;;;;;;;;;;;;1021390;29;1396;-14
2021/10/25 03:17:29;;;;;;;;;;;;;;;;;;1021799;28;1175;-15
2021/10/25 03:18:14;;;;;;;;;;;;;;;;;;1023609;28;1153;-15
2021/10/25 03:18:44;;;;;;;;;;;;;;;;;;1020796;28;1182;-14
2021/10/25 03:19:15;;;;;;;;;;;;;;;;;;1017698;29;1370;-14
2021/10/25 03:19:46;;;;;;;;;;;;;;;;;;1016165;29;1187;-14
2021/10/25 03:20:17;;;;;;;;;;;;;;;;;;1017905;29;1139;-14
2021/10/25 03:20:51;;;;;;;;;;;;;;;;;;1022376;28;1064;-15
2021/10/25 03:21:22;;;;;;;;;;;;;;;;;;1026728;28;1080;-15
2021/10/25 03:21:54;;;;;;;;;;;;;;;;;;1025731;28;1209;-14
2021/10/25 03:22:25;;;;;;;;;;;;;;;;;;1028835;28;1368;-15
2021/10/25 03:22:56;;;;;;;;;;;;;;;;;;1021802;29;1205;-15
2021/10/25 03:23:27;;;;;;;;;;;;;;;;;;1017437;29;1183;-14
2021/10/25 03:23:59;;;;;;;;;;;;;;;;;;1017820;29;1173;-14
2021/10/25 03:24:29;;;;;;;;;;;;;;;;;;1017792;29;1271;-15
2021/10/25 03:25:00;;;;;;;;;;;;;;;;;;1026020;28;1049;-14
2021/10/25 03:25:31;;;;;;;;;;;;;;;;;;1022542;28;1042;-14
2021/10/25 03:26:03;;;;;;;;;;;;;;;;;;1029601;28;1271;-14
2021/10/25 03:26:34;;;;;;;;;;;;;;;;;;1025323;28;1250;-14
2021/10/25 03:27:05;;;;;;;;;;;;;;;;;;1017126;29;1330;-15
2021/10/25 03:27:37;;;;;;;;;;;;;;;;;;1021141;29;1112;-14
2021/10/25 03:28:08;;;;;;;;;;;;;;;;;;1017255;29;1415;-15
2021/10/25 03:28:40;;;;;;;;;;;;;;;;;;1028200;28;1193;-15
2021/10/25 03:29:11;;;;;;;;;;;;;;;;;;1025643;28;1373;-14
2021/10/25 03:29:43;;;;;;;;;;;;;;;;;;1020271;28;1910;-15
2021/10/25 03:30:14;;;;;;;;;;;;;;;;;;1013308;29;1274;-14
2021/10/25 03:30:50;;;;;;;;;;;;;;;;;;1018629;29;1061;-14
2021/10/25 03:31:21;;;;;;;;;;;;;;;;;;1017106;29;1134;-14
2021/10/25 03:31:53;;;;;;;;;;;;;;;;;;1009764;29;1156;-13
2021/10/25 03:32:24;;;;;;;;;;;;;;;;;;1008350;29;1540;-13
2021/10/25 03:33:00;;;;;;;;;;;;;;;;;;1005016;29;1299;-14
2021/10/25 03:33:47;;;;;;;;;;;;;;;;;;1012156;29;1218;-14
2021/10/25 03:34:25;;;;;;;;;;;;;;;;;;1017809;29;1023;-14
2021/10/25 03:34:56;;;;;;;;;;;;;;;;;;1013993;29;1316;-15
2021/10/25 03:35:27;;;;;;;;;;;;;;;;;;1014396;29;1265;-13
2021/10/25 03:35:58;;;;;;;;;;;;;;;;;;1020522;29;1043;-15
2021/10/25 03:36:31;;;;;;;;;;;;;;;;;;1017887;29;2001;-15
2021/10/25 03:37:02;;;;;;;;;;;;;;;;;;1022167;28;1298;-14
2021/10/25 03:37:35;;;;;;;;;;;;;;;;;;1025257;28;1195;-13
2021/10/25 03:38:08;;;;;;;;;;;;;;;;;;1022381;28;1792;-13
2021/10/25 03:38:39;;;;;;;;;;;;;;;;;;1024694;28;1827;-14
2021/10/25 03:39:10;;;;;;;;;;;;;;;;;;1017016;29;1901;-15
2021/10/25 03:39:50;;;;;;;;;;;;;;;;;;1023016;28;1206;-14
2021/10/25 03:40:20;;;;;;;;;;;;;;;;;;1021683;29;1313;-14
2021/10/25 03:40:53;;;;;;;;;;;;;;;;;;1016342;29;1347;-14